Time;durP1;ratioP1;P1;durP2;ratioP2;P2;SDS_P1;SDS_P2;PMS_P1;PMS_P2;Temp;Humidity;BMP_temperature;BMP_pressure;BME280_temperature;BME280_humidity;BME280_pressure;Samples;Min_cycle;Max_cycle;Signal;HPM_P1;HPM_P2
2021/07/02 00:00:54;;;;;;;19.42;12.73;;;16.90;76.10;;;;;;6275846;22;20015;-81
2021/07/02 00:03:21;;;;;;;21.92;14.27;;;16.80;76.10;;;;;;6277907;22;20020;-82
2021/07/02 00:05:48;;;;;;;16.45;12.70;;;16.80;76.20;;;;;;6276367;22;20091;-81
2021/07/02 00:08:15;;;;;;;18.67;13.68;;;16.80;76.30;;;;;;6251270;22;20027;-81
2021/07/02 00:10:42;;;;;;;19.25;14.48;;;16.80;76.30;;;;;;6275554;22;20030;-82
2021/07/02 00:13:09;;;;;;;20.13;14.52;;;16.80;76.40;;;;;;6276022;22;20337;-81
2021/07/02 00:15:36;;;;;;;20.15;15.10;;;16.80;76.40;;;;;;6276910;22;20398;-81
2021/07/02 00:18:03;;;;;;;16.50;12.73;;;16.80;76.50;;;;;;6277267;22;20497;-81
2021/07/02 00:20:31;;;;;;;17.98;13.95;;;16.80;76.50;;;;;;6276298;22;20388;-82
2021/07/02 00:22:58;;;;;;;22.30;14.00;;;16.80;76.60;;;;;;6276024;22;20022;-81
2021/07/02 00:25:25;;;;;;;16.92;11.27;;;16.80;76.60;;;;;;6276537;22;20042;-81
2021/07/02 00:27:52;;;;;;;15.10;12.20;;;16.80;76.70;;;;;;6275829;22;20366;-81
2021/07/02 00:30:19;;;;;;;18.67;13.63;;;16.80;76.70;;;;;;6275397;22;20022;-82
2021/07/02 00:32:46;;;;;;;21.23;15.57;;;16.80;76.80;;;;;;6275796;22;20426;-81
2021/07/02 00:35:13;;;;;;;18.35;14.35;;;16.80;76.80;;;;;;6276931;22;20478;-83
2021/07/02 00:37:40;;;;;;;20.00;13.75;;;16.80;76.80;;;;;;6277078;22;20094;-83
2021/07/02 00:40:08;;;;;;;20.80;14.15;;;16.80;76.80;;;;;;6275689;22;20012;-81
2021/07/02 00:42:35;;;;;;;17.70;12.05;;;16.70;76.80;;;;;;6275647;22;20015;-81
2021/07/02 00:45:03;;;;;;;17.90;13.48;;;16.80;76.90;;;;;;6276963;22;20031;-83
2021/07/02 00:47:30;;;;;;;19.25;13.55;;;16.70;76.90;;;;;;6275960;22;20354;-80
2021/07/02 00:49:58;;;;;;;16.23;12.60;;;16.80;76.90;;;;;;6276923;22;20471;-82
2021/07/02 00:52:25;;;;;;;20.35;13.73;;;16.70;76.90;;;;;;6275628;22;20111;-83
2021/07/02 00:54:54;;;;;;;19.13;12.95;;;16.70;76.80;;;;;;6276936;22;20090;-83
2021/07/02 00:57:23;;;;;;;18.15;13.85;;;16.60;76.70;;;;;;6277558;22;20106;-81
2021/07/02 00:59:50;;;;;;;20.40;12.95;;;16.60;76.60;;;;;;6275249;22;20055;-81
2021/07/02 01:02:18;;;;;;;15.10;12.23;;;16.60;76.60;;;;;;6276740;22;20464;-81
2021/07/02 01:04:45;;;;;;;15.73;12.02;;;16.60;76.50;;;;;;6275353;22;20016;-80
2021/07/02 01:07:12;;;;;;;16.85;13.73;;;16.60;76.60;;;;;;6275318;22;20022;-81
2021/07/02 01:09:43;;;;;;;18.65;13.80;;;16.60;76.60;;;;;;6275810;22;20008;-81
2021/07/02 01:12:12;;;;;;;18.15;13.07;;;16.50;76.60;;;;;;6275302;22;20099;-81
2021/07/02 01:14:40;;;;;;;21.90;15.73;;;16.50;76.70;;;;;;6275158;22;20365;-82
2021/07/02 01:17:07;;;;;;;18.05;13.50;;;16.50;76.80;;;;;;6249799;22;20020;-80
2021/07/02 01:19:34;;;;;;;22.58;15.07;;;16.40;76.90;;;;;;6250049;22;20351;-82
2021/07/02 01:22:02;;;;;;;18.33;13.95;;;16.40;77.00;;;;;;6275219;22;20359;-81
2021/07/02 01:24:29;;;;;;;20.80;15.07;;;16.40;77.10;;;;;;6276961;22;20358;-81
2021/07/02 01:26:57;;;;;;;20.95;14.32;;;16.40;77.20;;;;;;6275142;22;20475;-81
2021/07/02 01:29:24;;;;;;;20.90;14.48;;;16.40;77.30;;;;;;6275282;22;20023;-81
2021/07/02 01:31:51;;;;;;;24.20;16.27;;;16.40;77.40;;;;;;6275598;22;20146;-83
2021/07/02 01:34:18;;;;;;;19.65;14.52;;;16.30;77.50;;;;;;6274950;22;20024;-81
2021/07/02 01:36:45;;;;;;;20.33;15.27;;;16.30;77.50;;;;;;6274786;22;20475;-82
2021/07/02 01:39:12;;;;;;;17.98;13.93;;;16.30;77.60;;;;;;6275173;22;20043;-81
2021/07/02 01:41:40;;;;;;;16.25;13.63;;;16.20;77.50;;;;;;6275434;22;20098;-81
2021/07/02 01:44:07;;;;;;;21.85;14.18;;;16.20;77.50;;;;;;6276463;22;20094;-82
2021/07/02 01:46:34;;;;;;;18.20;13.73;;;16.20;77.50;;;;;;6276644;22;20055;-82
2021/07/02 01:49:01;;;;;;;18.80;14.32;;;16.20;77.50;;;;;;6275024;22;20015;-81
2021/07/02 01:51:28;;;;;;;20.13;13.77;;;16.20;77.60;;;;;;6275408;22;20016;-81
2021/07/02 01:53:55;;;;;;;18.15;14.02;;;16.20;77.70;;;;;;6275089;22;20019;-82
2021/07/02 01:56:22;;;;;;;17.88;14.27;;;16.10;77.80;;;;;;6274405;22;20016;-81
2021/07/02 01:58:50;;;;;;;20.23;14.65;;;16.10;77.90;;;;;;6276280;22;20022;-81
2021/07/02 02:01:17;;;;;;;19.88;14.63;;;16.10;78.00;;;;;;6300882;22;20016;-81
2021/07/02 02:03:45;;;;;;;17.67;13.65;;;16.10;78.00;;;;;;6276407;22;20087;-81
2021/07/02 02:06:12;;;;;;;17.05;13.20;;;16.10;78.20;;;;;;6275024;22;20019;-81
2021/07/02 02:08:39;;;;;;;17.23;14.32;;;16.10;78.30;;;;;;6276394;22;20022;-83
2021/07/02 02:11:06;;;;;;;20.20;13.35;;;16.20;78.30;;;;;;6276333;22;20031;-81
2021/07/02 02:13:33;;;;;;;19.35;14.25;;;16.20;78.40;;;;;;6276645;22;20015;-81
2021/07/02 02:16:00;;;;;;;21.58;15.88;;;16.10;78.50;;;;;;6274847;22;20090;-81
2021/07/02 02:18:27;;;;;;;21.17;15.45;;;16.20;78.70;;;;;;6274590;22;20022;-81
2021/07/02 02:20:54;;;;;;;22.58;16.23;;;16.10;78.80;;;;;;6276234;22;20362;-82
2021/07/02 02:23:21;;;;;;;20.02;16.02;;;16.10;79.10;;;;;;6274708;22;20015;-81
2021/07/02 02:25:48;;;;;;;23.67;17.45;;;16.10;79.20;;;;;;6274371;22;20012;-81
2021/07/02 02:28:15;;;;;;;21.92;16.73;;;16.10;79.30;;;;;;6275051;22;20098;-80
2021/07/02 02:30:42;;;;;;;25.80;17.77;;;16.10;79.40;;;;;;6275093;22;20046;-81
2021/07/02 02:33:11;;;;;;;29.10;19.80;;;16.10;79.50;;;;;;6274732;22;20016;-81
2021/07/02 02:35:38;;;;;;;25.65;17.92;;;16.10;79.70;;;;;;6274394;22;20015;-81
2021/07/02 02:38:05;;;;;;;20.80;14.88;;;16.10;79.80;;;;;;6276205;22;20022;-81
2021/07/02 02:40:33;;;;;;;28.88;19.05;;;16.10;79.90;;;;;;6274621;22;20022;-82
2021/07/02 02:43:00;;;;;;;24.80;17.80;;;16.10;79.90;;;;;;6274934;22;20019;-81
2021/07/02 02:45:27;;;;;;;27.27;18.70;;;16.10;79.90;;;;;;6275069;22;20016;-81
2021/07/02 02:47:54;;;;;;;23.73;16.85;;;16.10;80.00;;;;;;6276346;22;20015;-82
2021/07/02 02:50:21;;;;;;;24.92;18.02;;;16.20;80.10;;;;;;6276003;22;20058;-82
2021/07/02 02:52:48;;;;;;;28.10;18.50;;;16.20;80.10;;;;;;6274423;22;20551;-81
2021/07/02 02:55:16;;;;;;;27.80;19.17;;;16.20;80.10;;;;;;6274595;22;20015;-81
2021/07/02 02:57:43;;;;;;;22.95;17.15;;;16.20;80.30;;;;;;6276201;22;20016;-81
2021/07/02 03:00:11;;;;;;;27.45;18.75;;;16.20;80.30;;;;;;6275824;22;20348;-82
2021/07/02 03:02:39;;;;;;;24.27;17.20;;;16.20;80.30;;;;;;6275196;22;20016;-82
2021/07/02 03:05:25;;;;;;;23.20;16.25;;;16.20;80.30;;;;;;6253944;22;20089;-82
2021/07/02 03:07:55;;;;;;;32.17;17.70;;;16.30;80.40;;;;;;6274971;22;20031;-81
2021/07/02 03:10:27;;;;;;;30.27;19.88;;;16.30;80.40;;;;;;6274569;22;20074;-82
2021/07/02 03:12:54;;;;;;;29.45;19.15;;;16.20;80.40;;;;;;6274723;22;20185;-82
2021/07/02 03:15:22;;;;;;;25.27;18.30;;;16.30;80.50;;;;;;6275738;22;20420;-81
2021/07/02 03:17:49;;;;;;;29.73;18.13;;;16.30;80.50;;;;;;6274424;22;20094;-81
2021/07/02 03:20:16;;;;;;;26.52;17.75;;;16.30;80.50;;;;;;6274342;22;20015;-81
2021/07/02 03:22:43;;;;;;;27.35;18.70;;;16.30;80.60;;;;;;6274442;22;20095;-81
2021/07/02 03:25:12;;;;;;;31.70;20.15;;;16.30;80.60;;;;;;6274463;22;20016;-82
2021/07/02 03:27:39;;;;;;;35.95;22.02;;;16.20;80.70;;;;;;6275936;22;20362;-81
2021/07/02 03:30:09;;;;;;;33.53;22.65;;;16.30;80.70;;;;;;6274570;22;20026;-81
2021/07/02 03:32:36;;;;;;;28.27;19.30;;;16.30;80.80;;;;;;6274604;22;20022;-82
2021/07/02 03:35:06;;;;;;;27.92;20.23;;;16.30;80.80;;;;;;6274466;22;20020;-81
2021/07/02 03:37:33;;;;;;;29.15;20.38;;;16.30;80.80;;;;;;6274447;22;20020;-81
2021/07/02 03:40:02;;;;;;;27.83;18.17;;;16.30;80.80;;;;;;6274070;22;20015;-82
2021/07/02 03:42:29;;;;;;;30.25;19.80;;;16.30;80.80;;;;;;6274177;22;20016;-82
2021/07/02 03:44:57;;;;;;;26.65;19.63;;;16.30;80.80;;;;;;6274334;22;20542;-82
2021/07/02 03:47:24;;;;;;;27.50;18.80;;;16.30;80.70;;;;;;6277373;22;20019;-82
2021/07/02 03:49:51;;;;;;;26.58;18.70;;;16.30;80.70;;;;;;6277807;22;20018;-82
2021/07/02 03:52:19;;;;;;;27.75;19.45;;;16.40;80.70;;;;;;6277385;22;20098;-82
2021/07/02 03:54:45;;;;;;;33.42;20.02;;;16.40;80.60;;;;;;6277655;22;20016;-81
2021/07/02 03:57:18;;;;;;;32.40;18.70;;;16.40;80.60;;;;;;6276425;22;20019;-82
2021/07/02 03:59:48;;;;;;;27.85;18.25;;;16.40;80.50;;;;;;6276087;22;20095;-81
2021/07/02 04:02:16;;;;;;;25.90;17.35;;;16.40;80.60;;;;;;6276343;22;20020;-81
2021/07/02 04:04:44;;;;;;;31.52;19.67;;;16.40;80.60;;;;;;6276111;22;20022;-81
2021/07/02 04:07:14;;;;;;;32.92;21.00;;;16.40;80.60;;;;;;6275721;22;20354;-82
2021/07/02 04:09:41;;;;;;;29.58;19.13;;;16.40;80.50;;;;;;6276328;22;20023;-82
2021/07/02 04:12:09;;;;;;;31.38;21.17;;;16.40;80.50;;;;;;6275786;22;20089;-81
2021/07/02 04:14:37;;;;;;;31.17;20.10;;;16.40;80.50;;;;;;6276289;22;20016;-80
2021/07/02 04:17:04;;;;;;;35.28;21.55;;;16.40;80.60;;;;;;6275745;22;20020;-81
2021/07/02 04:19:31;;;;;;;33.50;22.55;;;16.40;80.60;;;;;;6276209;22;20015;-81
2021/07/02 04:21:59;;;;;;;36.67;21.83;;;16.40;80.60;;;;;;6275452;22;20082;-81
2021/07/02 04:24:28;;;;;;;32.05;20.92;;;16.40;80.60;;;;;;6275577;22;20087;-81
2021/07/02 04:27:11;;;;;;;27.58;18.70;;;16.40;80.70;;;;;;6275984;22;20539;-81
2021/07/02 04:29:38;;;;;;;36.83;22.20;;;16.40;80.60;;;;;;6277185;22;20018;-82
2021/07/02 04:32:06;;;;;;;34.28;21.40;;;16.40;80.70;;;;;;6275711;22;20035;-82
2021/07/02 04:34:33;;;;;;;30.98;21.40;;;16.40;80.60;;;;;;6275859;22;20091;-81
2021/07/02 04:37:01;;;;;;;30.73;19.52;;;16.40;80.60;;;;;;6275656;22;20095;-81
2021/07/02 04:39:33;;;;;;;29.02;20.30;;;16.50;80.70;;;;;;6276095;22;20082;-81
2021/07/02 04:42:00;;;;;;;34.90;21.52;;;16.50;80.70;;;;;;6275876;22;20018;-82
2021/07/02 04:44:27;;;;;;;31.33;20.42;;;16.50;80.70;;;;;;6275449;22;20057;-82
2021/07/02 04:46:54;;;;;;;32.13;22.15;;;16.50;80.80;;;;;;6275944;22;20016;-81
2021/07/02 04:49:21;;;;;;;33.67;23.33;;;16.50;80.80;;;;;;6277042;22;20050;-81
2021/07/02 04:51:48;;;;;;;35.97;22.83;;;16.50;80.80;;;;;;6277036;22;20031;-81
2021/07/02 04:54:16;;;;;;;31.23;21.65;;;16.50;80.90;;;;;;6276754;22;20094;-81
2021/07/02 04:59:33;;;;;;;33.88;22.65;;;16.50;80.90;;;;;;6141557;22;20026;-81
2021/07/02 05:02:10;;;;;;;31.67;21.38;;;16.50;80.90;;;;;;6245617;23;20051;-81
2021/07/02 05:04:39;;;;;;;35.47;22.00;;;16.50;80.90;;;;;;6220554;23;20024;-81
2021/07/02 05:07:07;;;;;;;35.15;22.48;;;16.50;80.90;;;;;;6219718;23;20016;-81
2021/07/02 05:09:35;;;;;;;39.25;25.23;;;16.50;81.00;;;;;;6219890;23;20016;-82
2021/07/02 05:12:03;;;;;;;33.15;22.40;;;16.50;81.00;;;;;;6244677;23;20016;-81
2021/07/02 05:14:30;;;;;;;37.28;24.08;;;16.50;81.00;;;;;;6219773;23;20095;-81
2021/07/02 05:16:59;;;;;;;39.65;24.30;;;16.50;81.10;;;;;;6219494;23;20023;-81
2021/07/02 05:19:27;;;;;;;38.47;25.25;;;16.50;81.10;;;;;;6219562;23;20083;-81
2021/07/02 05:21:54;;;;;;;44.97;27.48;;;16.50;81.10;;;;;;6219136;23;20091;-81
2021/07/02 05:24:21;;;;;;;38.80;26.15;;;16.50;81.10;;;;;;6246462;23;20016;-81
2021/07/02 05:26:48;;;;;;;48.00;25.95;;;16.50;81.10;;;;;;6246247;23;20027;-81
2021/07/02 05:29:15;;;;;;;43.97;27.77;;;16.60;81.10;;;;;;6245545;23;20550;-81
2021/07/02 05:31:42;;;;;;;43.55;28.67;;;16.50;81.10;;;;;;6244756;23;20026;-80
2021/07/02 05:34:11;;;;;;;43.13;28.52;;;16.50;81.10;;;;;;6219802;23;20027;-81
2021/07/02 05:36:38;;;;;;;50.80;28.00;;;16.50;81.10;;;;;;6219013;23;20083;-81
2021/07/02 05:39:05;;;;;;;46.20;29.45;;;16.60;81.10;;;;;;6219952;23;20206;-81
2021/07/02 05:41:33;;;;;;;40.00;28.85;;;16.60;81.10;;;;;;6246059;23;20008;-80
2021/07/02 05:44:00;;;;;;;41.28;26.98;;;16.50;81.10;;;;;;6244393;23;20102;-81
2021/07/02 05:46:27;;;;;;;46.10;28.30;;;16.60;81.20;;;;;;6219107;23;20099;-81
2021/07/02 05:48:54;;;;;;;45.08;29.75;;;16.60;81.10;;;;;;6244407;23;20023;-81
2021/07/02 05:51:21;;;;;;;50.92;28.70;;;16.60;81.20;;;;;;6218950;23;20078;-80
2021/07/02 05:53:48;;;;;;;43.45;27.30;;;16.60;81.20;;;;;;6245581;23;20097;-81
2021/07/02 05:56:15;;;;;;;36.95;25.85;;;16.60;81.30;;;;;;6218880;23;20087;-81
2021/07/02 05:58:42;;;;;;;47.30;30.65;;;16.60;81.30;;;;;;6218851;23;20485;-81
2021/07/02 06:01:10;;;;;;;44.97;28.42;;;16.60;81.30;;;;;;6237480;22;20016;-89
2021/07/02 06:03:37;;;;;;;44.38;29.00;;;16.70;81.30;;;;;;6275227;22;20094;-85
2021/07/02 06:06:19;;;;;;;45.05;30.60;;;16.60;81.30;;;;;;6274604;22;20022;-85
2021/07/02 06:08:46;;;;;;;45.22;30.42;;;16.70;81.30;;;;;;6249495;22;20022;-85
2021/07/02 06:11:13;;;;;;;48.88;31.55;;;16.70;81.30;;;;;;6275053;22;20028;-83
2021/07/02 06:13:40;;;;;;;48.00;31.05;;;16.70;81.40;;;;;;6274799;22;20481;-84
2021/07/02 06:16:07;;;;;;;49.78;32.88;;;16.70;81.40;;;;;;6276037;22;20083;-83
2021/07/02 06:18:35;;;;;;;51.58;33.13;;;16.80;81.40;;;;;;6249647;22;20020;-84
2021/07/02 06:21:02;;;;;;;53.92;33.45;;;16.80;81.40;;;;;;6249337;22;20088;-83
2021/07/02 06:23:35;;;;;;;53.95;33.95;;;16.80;81.50;;;;;;6275077;22;20022;-84
2021/07/02 06:26:04;;;;;;;46.63;30.75;;;16.80;81.50;;;;;;6275153;22;20015;-83
2021/07/02 06:28:32;;;;;;;49.75;33.50;;;16.80;81.50;;;;;;6249483;22;20098;-84
2021/07/02 06:31:00;;;;;;;52.40;33.25;;;16.80;81.50;;;;;;6274921;22;20035;-83
2021/07/02 06:33:27;;;;;;;49.20;31.85;;;16.90;81.50;;;;;;6249655;22;20027;-83
2021/07/02 06:35:54;;;;;;;55.38;32.70;;;16.90;81.60;;;;;;6249251;22;20477;-83
2021/07/02 06:38:21;;;;;;;56.60;32.67;;;16.90;81.50;;;;;;6275800;22;20401;-83
2021/07/02 06:40:48;;;;;;;51.58;32.72;;;16.90;81.50;;;;;;6274792;22;20015;-83
2021/07/02 06:43:17;;;;;;;55.00;33.80;;;16.90;81.50;;;;;;6272611;22;20030;-84
2021/07/02 06:45:44;;;;;;;52.72;30.27;;;16.90;81.50;;;;;;6273587;22;20019;-84
2021/07/02 06:48:11;;;;;;;50.30;31.55;;;17.00;81.40;;;;;;6274516;22;20078;-84
2021/07/02 06:50:43;;;;;;;56.05;32.35;;;17.00;81.40;;;;;;6248208;22;20357;-83
2021/07/02 06:53:10;;;;;;;43.72;28.60;;;17.00;81.30;;;;;;6247804;22;20047;-83
2021/07/02 06:55:38;;;;;;;48.08;30.00;;;17.10;81.30;;;;;;6273248;22;20462;-83
2021/07/02 06:58:08;;;;;;;44.63;29.88;;;17.10;81.20;;;;;;6248014;22;20083;-83
2021/07/02 07:00:38;;;;;;;51.33;30.58;;;17.10;81.10;;;;;;6247026;22;20411;-83
2021/07/02 07:03:07;;;;;;;41.95;28.70;;;17.10;81.00;;;;;;6273099;22;20011;-82
2021/07/02 07:05:38;;;;;;;43.75;29.40;;;17.10;81.00;;;;;;6248265;22;20016;-83
2021/07/02 07:08:07;;;;;;;43.40;28.30;;;17.20;81.00;;;;;;6248142;22;20094;-82
2021/07/02 07:10:36;;;;;;;39.53;26.27;;;17.20;81.10;;;;;;6247633;22;20054;-83
2021/07/02 07:13:07;;;;;;;42.88;27.45;;;17.20;81.10;;;;;;6272996;22;20030;-83
2021/07/02 07:15:35;;;;;;;41.22;27.85;;;17.30;81.10;;;;;;6273124;22;20019;-83
2021/07/02 07:18:03;;;;;;;42.63;28.73;;;17.30;81.00;;;;;;6247992;22;20357;-83
2021/07/02 07:20:30;;;;;;;43.17;29.40;;;17.30;80.90;;;;;;6273995;22;20098;-83
2021/07/02 07:22:58;;;;;;;41.67;26.02;;;17.40;81.00;;;;;;6274924;22;20366;-83
2021/07/02 07:25:25;;;;;;;35.63;26.05;;;17.40;80.90;;;;;;6275561;22;20018;-82
2021/07/02 07:27:52;;;;;;;52.42;27.73;;;17.40;80.90;;;;;;6249900;22;20098;-83
2021/07/02 07:30:20;;;;;;;42.97;29.17;;;17.40;80.50;;;;;;6274824;22;20027;-84
2021/07/02 07:32:50;;;;;;;50.45;28.80;;;17.40;80.50;;;;;;6275232;22;20106;-83
2021/07/02 07:35:26;;;;;;;43.42;28.00;;;17.40;80.60;;;;;;6275049;22;20026;-84
2021/07/02 07:37:55;;;;;;;46.60;28.48;;;17.40;80.60;;;;;;6274991;22;20022;-83
2021/07/02 07:40:24;;;;;;;41.28;27.65;;;17.50;80.60;;;;;;6276094;22;20458;-83
2021/07/02 07:42:52;;;;;;;41.17;26.25;;;17.40;80.40;;;;;;6276487;22;20016;-84
2021/07/02 07:45:21;;;;;;;46.38;30.70;;;17.50;80.40;;;;;;6276611;22;20018;-83
2021/07/02 07:47:48;;;;;;;46.03;27.98;;;17.50;80.40;;;;;;6277207;22;20022;-83
2021/07/02 07:50:27;;;;;;;45.97;29.00;;;17.50;80.50;;;;;;6250782;22;20020;-83
2021/07/02 07:53:00;;;;;;;41.90;27.55;;;17.50;80.50;;;;;;6276187;22;20090;-82
2021/07/02 07:55:29;;;;;;;40.15;26.38;;;17.50;80.50;;;;;;6275809;22;20061;-83
2021/07/02 07:57:58;;;;;;;43.53;28.42;;;17.60;80.40;;;;;;6275874;22;20419;-84
2021/07/02 08:00:25;;;;;;;40.53;26.38;;;17.60;80.20;;;;;;6275688;22;20016;-84
2021/07/02 08:02:52;;;;;;;39.35;26.65;;;17.60;80.10;;;;;;6276310;22;20090;-83
2021/07/02 08:05:20;;;;;;;41.92;25.83;;;17.60;80.20;;;;;;6250481;22;20409;-83
2021/07/02 08:07:47;;;;;;;43.33;27.08;;;17.60;80.20;;;;;;6277391;22;20111;-83
2021/07/02 08:10:16;;;;;;;41.70;26.83;;;17.70;80.10;;;;;;6250241;22;20018;-84
2021/07/02 08:12:44;;;;;;;38.92;25.73;;;17.70;80.20;;;;;;6250686;22;20022;-83
2021/07/02 08:15:13;;;;;;;39.72;26.15;;;17.70;80.20;;;;;;6277855;22;20026;-82
2021/07/02 08:17:41;;;;;;;40.50;26.65;;;17.80;80.20;;;;;;6250562;22;20011;-82
2021/07/02 08:20:09;;;;;;;39.97;26.30;;;17.80;80.10;;;;;;6277110;22;20016;-83
2021/07/02 08:22:37;;;;;;;46.55;28.95;;;17.80;80.00;;;;;;6251128;22;20391;-83
2021/07/02 08:25:06;;;;;;;42.42;27.25;;;17.80;80.00;;;;;;6250689;22;20351;-83
2021/07/02 08:29:22;;;;;;;42.35;25.17;;;17.90;80.00;;;;;;6250345;22;20016;-83
2021/07/02 08:30:20;;;;;;;37.88;25.77;;;17.90;80.00;;;;;;6276972;22;20366;-83
2021/07/02 08:32:48;;;;;;;52.17;27.58;;;18.00;80.00;;;;;;6249878;22;20554;-83
2021/07/02 08:35:20;;;;;;;51.58;28.40;;;18.00;79.90;;;;;;6250763;22;20350;-83
2021/07/02 08:37:52;;;;;;;44.88;27.98;;;18.10;80.00;;;;;;6249767;22;20034;-82
2021/07/02 08:40:20;;;;;;;37.67;26.02;;;18.20;80.10;;;;;;6250267;22;20383;-83
2021/07/02 08:42:48;;;;;;;37.40;26.15;;;18.30;80.00;;;;;;6250469;22;20019;-83
2021/07/02 08:45:16;;;;;;;40.60;26.80;;;18.30;79.50;;;;;;6250385;22;20016;-84
2021/07/02 08:47:43;;;;;;;40.75;26.40;;;18.30;79.30;;;;;;6250298;22;20134;-83
2021/07/02 08:50:13;;;;;;;38.88;24.27;;;18.40;79.30;;;;;;6250664;22;20073;-84
2021/07/02 08:52:40;;;;;;;41.92;26.60;;;18.40;79.30;;;;;;6276855;22;20077;-83
2021/07/02 08:55:11;;;;;;;36.30;24.55;;;18.50;79.20;;;;;;6276370;22;20030;-83
2021/07/02 08:57:38;;;;;;;44.85;24.70;;;18.50;79.00;;;;;;6250520;22;20357;-83
2021/07/02 09:00:09;;;;;;;39.45;26.33;;;18.50;78.90;;;;;;6250641;22;20020;-84
2021/07/02 09:02:39;;;;;;;43.78;25.88;;;18.60;79.00;;;;;;6275780;22;20012;-83
2021/07/02 09:05:34;;;;;;;34.00;23.98;;;18.70;79.00;;;;;;6250729;22;20020;-83
2021/07/02 09:08:13;;;;;;;38.53;25.55;;;18.70;79.00;;;;;;6255967;22;20020;-84
2021/07/02 09:10:44;;;;;;;36.05;23.83;;;18.80;79.00;;;;;;6251420;22;20046;-83
2021/07/02 09:13:12;;;;;;;34.65;22.52;;;18.90;79.00;;;;;;6250036;22;20353;-84
2021/07/02 09:15:48;;;;;;;34.47;23.73;;;19.00;79.20;;;;;;6275562;22;20026;-83
2021/07/02 09:18:17;;;;;;;31.27;21.83;;;19.10;79.00;;;;;;6250558;22;20015;-83
2021/07/02 09:20:45;;;;;;;34.92;25.30;;;19.30;78.70;;;;;;6277116;22;20015;-83
2021/07/02 09:23:16;;;;;;;29.58;20.65;;;19.40;78.60;;;;;;6277043;22;20051;-83
2021/07/02 09:25:47;;;;;;;37.03;25.77;;;19.40;78.40;;;;;;6249733;22;20027;-83
2021/07/02 09:28:17;;;;;;;36.63;25.10;;;19.50;78.30;;;;;;6250031;22;20024;-85
2021/07/02 09:30:50;;;;;;;33.92;24.13;;;19.60;78.00;;;;;;6276900;22;20026;-83
2021/07/02 09:33:19;;;;;;;34.78;24.88;;;19.70;77.20;;;;;;6274843;22;20531;-83
2021/07/02 09:35:53;;;;;;;32.53;23.48;;;19.70;77.10;;;;;;6276328;22;20016;-83
2021/07/02 09:38:37;;;;;;;30.42;22.75;;;19.80;76.90;;;;;;6250232;22;20020;-83
2021/07/02 09:41:06;;;;;;;35.50;24.88;;;19.90;76.80;;;;;;6249746;22;20019;-83
2021/07/02 09:43:34;;;;;;;36.42;24.30;;;19.90;76.70;;;;;;6276450;22;20047;-84
2021/07/02 09:46:04;;;;;;;34.35;24.33;;;20.00;76.60;;;;;;6249919;22;20047;-83
2021/07/02 09:48:39;;;;;;;37.65;26.10;;;20.00;76.00;;;;;;6250138;22;20026;-83
2021/07/02 09:51:06;;;;;;;34.05;24.15;;;20.00;75.90;;;;;;6249601;22;20020;-83
2021/07/02 09:53:38;;;;;;;36.78;24.52;;;20.10;75.90;;;;;;6276468;22;20022;-83
2021/07/02 09:56:07;;;;;;;34.88;23.38;;;20.10;75.90;;;;;;6249754;22;20098;-83
2021/07/02 09:58:38;;;;;;;30.02;23.17;;;20.20;75.80;;;;;;6250062;22;20020;-83
2021/07/02 10:01:08;;;;;;;30.70;22.58;;;20.20;75.40;;;;;;6244467;22;20059;-84
2021/07/02 10:03:38;;;;;;;37.75;24.05;;;20.20;75.40;;;;;;6219361;23;20016;-82
2021/07/02 10:06:14;;;;;;;31.52;23.50;;;20.20;75.50;;;;;;6219089;23;20023;-83
2021/07/02 10:08:41;;;;;;;31.63;23.92;;;20.30;75.70;;;;;;6224470;22;20026;-82
2021/07/02 10:11:11;;;;;;;34.15;24.90;;;20.40;76.00;;;;;;6274544;22;20509;-83
2021/07/02 10:13:39;;;;;;;32.97;24.23;;;20.40;76.30;;;;;;6274636;22;20091;-84
2021/07/02 10:16:09;;;;;;;28.80;21.40;;;20.50;76.20;;;;;;6274876;22;20015;-83
2021/07/02 10:18:47;;;;;;;29.30;21.65;;;20.60;76.00;;;;;;6276290;22;20020;-84
2021/07/02 10:21:15;;;;;;;31.27;22.65;;;20.70;75.90;;;;;;6249336;22;20016;-85
2021/07/02 10:23:45;;;;;;;34.38;22.02;;;20.80;75.50;;;;;;6249391;22;20020;-85
2021/07/02 10:26:16;;;;;;;27.17;21.25;;;20.90;75.00;;;;;;6249480;22;20090;-84
2021/07/02 10:28:44;;;;;;;32.22;21.65;;;21.10;75.10;;;;;;6249528;22;20087;-83
2021/07/02 10:31:12;;;;;;;28.45;20.73;;;21.30;75.20;;;;;;6249213;22;20051;-84
2021/07/02 10:34:00;;;;;;;28.73;20.33;;;21.40;75.20;;;;;;6248822;22;20095;-85
2021/07/02 10:36:33;;;;;;;24.52;19.50;;;21.70;75.00;;;;;;6249492;22;20418;-87
2021/07/02 10:39:01;;;;;;;27.70;21.10;;;21.90;74.20;;;;;;6274824;22;20027;-86
2021/07/02 10:41:31;;;;;;;23.42;19.70;;;22.10;73.90;;;;;;6249588;22;20409;-83
2021/07/02 10:44:06;;;;;;;22.85;18.23;;;22.20;73.50;;;;;;6276324;22;20446;-83
2021/07/02 10:46:36;;;;;;;23.02;17.48;;;22.40;73.60;;;;;;6249485;22;20023;-84
2021/07/02 10:49:08;;;;;;;25.05;17.67;;;22.50;73.50;;;;;;6272490;22;20051;-84
2021/07/02 10:51:36;;;;;;;25.38;17.70;;;22.80;72.80;;;;;;6272606;22;20098;-84
2021/07/02 10:54:16;;;;;;;25.85;16.65;;;22.90;72.70;;;;;;6247779;22;20489;-82
2021/07/02 10:57:00;;;;;;;21.73;17.17;;;23.10;72.30;;;;;;6276868;22;20467;-84
2021/07/02 10:59:37;;;;;;;22.88;17.45;;;23.20;70.40;;;;;;6277038;22;20095;-83
2021/07/02 11:04:44;;;;;;;19.13;15.45;;;23.40;70.60;;;;;;6276580;22;20016;-84
2021/07/02 11:07:14;;;;;;;16.75;13.98;;;23.60;70.40;;;;;;6275707;22;20011;-84
2021/07/02 11:09:58;;;;;;;19.13;15.82;;;23.70;70.20;;;;;;6275168;22;20026;-84
2021/07/02 11:12:29;;;;;;;17.92;14.88;;;23.90;70.40;;;;;;6249890;22;20024;-85
2021/07/02 11:15:03;;;;;;;19.50;14.45;;;24.10;70.20;;;;;;6277031;22;20087;-84
2021/07/02 11:17:38;;;;;;;;;;;24.20;69.40;;;;;;6276984;22;20011;-84
2021/07/02 11:20:07;;;;;;;21.33;15.57;;;24.30;67.40;;;;;;6249882;22;19915;-84
2021/07/02 11:22:38;;;;;;;20.00;15.43;;;24.40;67.40;;;;;;6275799;22;20078;-84
2021/07/02 11:25:27;;;;;;;18.77;15.07;;;24.50;67.30;;;;;;6275491;22;20043;-84
2021/07/02 11:28:07;;;;;;;16.90;13.27;;;24.50;67.40;;;;;;6276254;22;20016;-84
2021/07/02 11:30:37;;;;;;;17.20;13.38;;;24.60;67.50;;;;;;6249423;22;20019;-85
2021/07/02 11:33:18;;;;;;;18.58;14.45;;;24.80;67.40;;;;;;6276205;22;20024;-85
2021/07/02 11:35:45;;;;;;;17.95;13.65;;;24.80;67.50;;;;;;6276607;22;20022;-85
2021/07/02 11:38:18;;;;;;;15.70;12.10;;;25.00;67.60;;;;;;6275251;22;20019;-85
2021/07/02 11:40:47;;;;;;;19.63;13.18;;;25.10;67.50;;;;;;6249915;22;20424;-85
2021/07/02 11:43:35;;;;;;;20.50;13.73;;;25.20;67.00;;;;;;6250406;22;20397;-85
2021/07/02 11:46:12;;;;;;;16.83;13.25;;;25.30;66.70;;;;;;6274719;22;20529;-85
2021/07/02 11:48:41;;;;;;;16.27;12.23;;;25.30;66.50;;;;;;6275154;22;20059;-85
2021/07/02 11:51:13;;;;;;;17.05;11.98;;;25.30;66.20;;;;;;6275983;22;20540;-86
2021/07/02 11:53:45;;;;;;;14.32;11.48;;;25.40;65.80;;;;;;6250043;22;20030;-83
2021/07/02 11:56:22;;;;;;;15.73;11.88;;;25.40;65.00;;;;;;6249920;22;20019;-84
2021/07/02 11:59:16;;;;;;;25.35;11.65;;;25.30;65.00;;;;;;6250192;22;20019;-86
2021/07/02 12:01:51;;;;;;;16.45;10.73;;;25.40;65.40;;;;;;6249140;22;20090;-85
2021/07/02 12:04:31;;;;;;;12.95;9.95;;;25.50;65.00;;;;;;6274613;22;20653;-85
2021/07/02 12:07:05;;;;;;;14.25;10.70;;;25.60;64.90;;;;;;6273962;22;20012;-85
2021/07/02 12:09:44;;;;;;;13.40;10.50;;;25.80;65.30;;;;;;6249922;22;20090;-85
2021/07/02 12:12:19;;;;;;;16.13;10.70;;;25.80;63.70;;;;;;6275228;22;20019;-86
2021/07/02 12:14:47;;;;;;;14.02;9.90;;;25.90;63.60;;;;;;6274815;22;20016;-84
2021/07/02 12:17:15;;;;;;;21.67;9.68;;;25.80;64.10;;;;;;6249463;22;20062;-85
2021/07/02 12:19:42;;;;;;;13.52;9.13;;;25.90;63.50;;;;;;6248902;22;20091;-85
2021/07/02 12:22:13;;;;;;;12.82;9.25;;;25.90;63.90;;;;;;6249635;22;20022;-85
2021/07/02 12:24:41;;;;;;;11.50;8.10;;;26.00;63.90;;;;;;6249640;22;20020;-85
2021/07/02 12:27:12;;;;;;;11.30;9.32;;;26.10;64.00;;;;;;6248651;22;20082;-84
2021/07/02 12:29:44;;;;;;;9.80;8.60;;;26.30;64.30;;;;;;6249580;22;20023;-83
2021/07/02 12:32:14;;;;;;;11.38;8.40;;;26.30;64.00;;;;;;6249536;22;20026;-86
2021/07/02 12:34:47;;;;;;;10.23;7.60;;;26.40;63.70;;;;;;6248689;22;20019;-86
2021/07/02 12:37:23;;;;;;;10.60;7.68;;;26.50;63.50;;;;;;6249449;22;20737;-84
2021/07/02 12:39:55;;;;;;;11.00;7.00;;;26.50;63.30;;;;;;6276453;22;20102;-85
2021/07/02 12:42:32;;;;;;;9.15;6.10;;;26.60;62.70;;;;;;6249384;22;20039;-86
2021/07/02 12:45:03;;;;;;;8.43;5.75;;;26.70;61.70;;;;;;6249161;22;20462;-85